METAR Data
IDs: Format: Raw Decoded Include TAF

Data at: 1714 UTC 19 Sep 2018

KBRO 191653Z 14010KT 10SM -RA BKN029 OVC037 31/26 A2995 RMK AO2 SLP140 P0032 T03060261